createdAt,value
2018-03-20T00:01:01.401Z,-0.70
2018-03-20T00:02:08.355Z,-0.80
2018-03-20T00:03:16.492Z,-0.70
2018-03-20T00:04:22.098Z,-0.70
2018-03-20T00:05:26.290Z,-0.80
2018-03-20T00:06:30.488Z,-0.70
2018-03-20T00:07:34.808Z,-0.80
2018-03-20T00:08:41.758Z,-0.70
2018-03-20T00:09:48.299Z,-0.70
2018-03-20T00:10:54.021Z,-0.70
2018-03-20T00:11:58.245Z,-0.70
2018-03-20T00:13:02.447Z,-0.70
2018-03-20T00:14:08.006Z,-0.70
2018-03-20T00:15:14.793Z,-0.70
2018-03-20T00:16:21.128Z,-0.70
2018-03-20T00:17:25.335Z,-0.70
2018-03-20T00:18:31.028Z,-0.60
2018-03-20T00:19:35.363Z,-0.70
2018-03-20T00:20:44.296Z,-0.60
2018-03-20T00:21:52.087Z,-0.50
2018-03-20T00:22:56.578Z,-0.60
2018-03-20T00:24:00.790Z,-0.50
2018-03-20T00:25:05.105Z,-0.60
2018-03-20T00:26:12.576Z,-0.60
2018-03-20T00:27:19.956Z,-0.60
2018-03-20T00:28:24.439Z,-0.60
2018-03-20T00:29:28.610Z,-0.60
2018-03-20T00:30:32.778Z,-0.60
2018-03-20T00:31:41.288Z,-0.50
2018-03-20T00:32:46.545Z,-0.60
2018-03-20T00:33:52.763Z,-0.60
2018-03-20T00:34:56.974Z,-0.60
2018-03-20T00:36:01.198Z,-0.60
2018-03-20T00:37:08.204Z,-0.60
2018-03-20T00:38:21.767Z,-0.60
2018-03-20T00:39:25.987Z,-0.50
2018-03-20T00:40:30.183Z,-0.60
2018-03-20T00:41:34.529Z,-0.50
2018-03-20T00:42:45.399Z,-0.50
2018-03-20T00:43:50.881Z,-0.60
2018-03-20T00:44:55.080Z,-0.60
2018-03-20T00:46:00.021Z,-0.50
2018-03-20T00:47:04.281Z,-0.50
2018-03-20T00:48:13.667Z,-0.50
2018-03-20T00:49:18.878Z,-0.50
2018-03-20T00:50:24.768Z,-0.50
2018-03-20T00:51:28.947Z,-0.50
2018-03-20T00:52:33.146Z,-0.50
2018-03-20T00:53:40.618Z,-0.40
2018-03-20T00:54:45.681Z,-0.50
2018-03-20T00:55:51.495Z,-0.40
2018-03-20T00:56:55.761Z,-0.40
2018-03-20T00:57:59.939Z,-0.30
2018-03-20T00:59:04.927Z,-0.30
2018-03-20T01:00:11.016Z,-0.40
2018-03-20T01:01:16.713Z,-0.30
2018-03-20T01:02:21.611Z,-0.30
2018-03-20T01:03:25.856Z,-0.30
2018-03-20T01:04:30.042Z,-0.30
2018-03-20T01:05:34.349Z,-0.30
2018-03-20T01:06:40.493Z,-0.40
2018-03-20T01:07:46.964Z,-0.40
2018-03-20T01:08:52.961Z,-0.50
2018-03-20T01:09:57.166Z,-0.50
2018-03-20T01:11:01.358Z,-0.60
2018-03-20T01:12:05.717Z,-0.60
2018-03-20T01:13:13.869Z,-0.60
2018-03-20T01:14:19.378Z,-0.70
2018-03-20T01:15:24.441Z,-0.70
2018-03-20T01:16:28.631Z,-0.70
2018-03-20T01:17:32.851Z,-0.70
2018-03-20T01:18:38.585Z,-0.70
2018-03-20T01:19:48.876Z,-0.70
2018-03-20T01:20:53.328Z,-0.70
2018-03-20T01:21:57.507Z,-0.70
2018-03-20T01:23:01.696Z,-0.70
2018-03-20T01:24:07.258Z,-0.60
2018-03-20T01:25:12.604Z,-0.60
2018-03-20T01:26:17.385Z,-0.60
2018-03-20T01:27:22.591Z,-0.60
2018-03-20T01:28:27.558Z,-0.60
2018-03-20T01:29:31.810Z,-0.60
2018-03-20T01:30:42.395Z,-0.60
2018-03-20T01:31:48.910Z,-0.50
2018-03-20T01:32:53.339Z,-0.50
2018-03-20T01:33:57.522Z,-0.40
2018-03-20T01:35:01.731Z,-0.40
2018-03-20T01:36:07.819Z,-0.40
2018-03-20T01:37:15.510Z,-0.30
2018-03-20T01:38:21.161Z,-0.30
2018-03-20T01:39:25.406Z,-0.20
2018-03-20T01:40:30.402Z,-0.20
2018-03-20T01:41:34.620Z,-0.20
2018-03-20T01:42:41.817Z,-0.20
2018-03-20T01:43:47.791Z,-0.20
2018-03-20T01:44:52.428Z,-0.10
2018-03-20T01:45:56.649Z,-0.10
2018-03-20T01:47:00.827Z,-0.10
2018-03-20T01:48:07.623Z,-0.10
2018-03-20T01:49:14.992Z,-0.10
2018-03-20T01:50:19.849Z,0.00
2018-03-20T01:51:24.304Z,0.00
2018-03-20T01:52:28.494Z,0.00
2018-03-20T01:53:32.753Z,0.00
2018-03-20T01:54:38.309Z,0.00
2018-03-20T01:55:44.500Z,0.00
2018-03-20T01:56:51.320Z,0.00
2018-03-20T01:57:56.297Z,0.00
2018-03-20T01:59:00.526Z,0.00
2018-03-20T02:00:04.809Z,-0.10
2018-03-20T02:01:13.109Z,0.00
2018-03-20T02:02:20.274Z,0.00
2018-03-20T02:03:25.411Z,0.00
2018-03-20T02:04:29.649Z,0.00
2018-03-20T02:05:33.891Z,0.00
2018-03-20T02:06:42.173Z,0.00
2018-03-20T02:07:51.796Z,0.00
2018-03-20T02:08:57.042Z,0.00
2018-03-20T02:10:01.298Z,0.10
2018-03-20T02:11:07.698Z,0.10
2018-03-20T02:12:14.433Z,0.00
2018-03-20T02:13:21.382Z,0.10
2018-03-20T02:14:26.457Z,0.10
2018-03-20T02:15:30.739Z,0.10
2018-03-20T02:16:34.980Z,0.10
2018-03-20T02:17:43.224Z,0.10
2018-03-20T02:18:49.525Z,0.20
2018-03-20T02:19:54.089Z,0.20
2018-03-20T02:20:58.258Z,0.10
2018-03-20T02:22:03.215Z,0.10
2018-03-20T02:23:11.308Z,0.10
2018-03-20T02:24:16.865Z,0.10
2018-03-20T02:25:22.730Z,0.20
2018-03-20T02:26:26.947Z,0.20
2018-03-20T02:27:31.129Z,0.20
2018-03-20T02:28:35.561Z,0.30
2018-03-20T02:29:44.345Z,0.30
2018-03-20T02:30:49.606Z,0.30
2018-03-20T02:31:54.175Z,0.30
2018-03-20T02:32:58.387Z,0.40
2018-03-20T02:34:04.069Z,0.30
2018-03-20T02:35:14.731Z,0.30
2018-03-20T02:36:20.670Z,0.30
2018-03-20T02:37:25.295Z,0.40
2018-03-20T02:38:30.245Z,0.40
2018-03-20T02:39:34.429Z,0.40
2018-03-20T02:40:42.355Z,0.40
2018-03-20T02:41:49.489Z,0.40
2018-03-20T02:42:54.124Z,0.40
2018-03-20T02:43:58.368Z,0.40
2018-03-20T02:45:01.845Z,0.40
2018-03-20T02:46:08.595Z,0.40
2018-03-20T02:47:15.567Z,0.40
2018-03-20T02:48:22.259Z,0.50
2018-03-20T02:49:27.278Z,0.50
2018-03-20T02:50:32.240Z,0.50
2018-03-20T02:51:40.711Z,0.50
2018-03-20T02:52:48.499Z,0.50
2018-03-20T02:53:54.002Z,0.50
2018-03-20T02:54:58.199Z,0.50
2018-03-20T02:56:02.396Z,0.50
2018-03-20T02:57:08.696Z,0.40
2018-03-20T02:58:15.386Z,0.50
2018-03-20T02:59:21.095Z,0.50
2018-03-20T03:00:26.430Z,0.50
2018-03-20T03:01:30.621Z,0.50
2018-03-20T03:02:34.841Z,0.50
2018-03-20T03:03:44.571Z,0.60
2018-03-20T03:04:50.902Z,0.50
2018-03-20T03:05:55.342Z,0.50
2018-03-20T03:06:59.560Z,0.60
2018-03-20T03:08:03.778Z,0.50
2018-03-20T03:09:12.754Z,0.60
2018-03-20T03:10:19.350Z,0.60
2018-03-20T03:11:23.597Z,0.60
2018-03-20T03:12:27.763Z,0.60
2018-03-20T03:13:32.750Z,0.70
2018-03-20T03:14:42.150Z,0.70
2018-03-20T03:15:49.264Z,0.80
2018-03-20T03:16:55.722Z,0.80
2018-03-20T03:17:59.909Z,0.80
2018-03-20T03:19:04.134Z,0.80
2018-03-20T03:20:12.862Z,0.80
2018-03-20T03:21:27.260Z,0.80
2018-03-20T03:22:31.725Z,0.80
2018-03-20T03:23:44.326Z,0.90
2018-03-20T03:24:54.827Z,0.80
2018-03-20T03:25:59.149Z,0.80
2018-03-20T03:27:03.335Z,0.80
2018-03-20T03:28:11.331Z,0.80
2018-03-20T03:29:19.220Z,0.90
2018-03-20T03:30:23.960Z,0.90
2018-03-20T03:31:28.173Z,0.90
2018-03-20T03:32:32.394Z,0.90
2018-03-20T03:33:39.731Z,0.90
2018-03-20T03:34:47.311Z,0.90
2018-03-20T03:35:54.301Z,1.00
2018-03-20T03:36:58.518Z,1.00
2018-03-20T03:38:02.724Z,1.00
2018-03-20T03:39:09.971Z,1.00
2018-03-20T03:40:18.579Z,1.00
2018-03-20T03:41:24.049Z,1.10
2018-03-20T03:42:28.279Z,1.10
2018-03-20T03:43:32.502Z,1.00
2018-03-20T03:44:38.672Z,1.00
2018-03-20T03:45:45.642Z,0.90
2018-03-20T03:46:51.878Z,0.90
2018-03-20T03:47:56.322Z,0.90
2018-03-20T03:49:00.516Z,0.80
2018-03-20T03:50:04.843Z,0.80
2018-03-20T03:51:14.722Z,0.80
2018-03-20T03:52:20.891Z,0.80
2018-03-20T03:53:25.271Z,0.80
2018-03-20T03:54:29.446Z,0.80
2018-03-20T03:55:33.626Z,0.80
2018-03-20T03:56:43.513Z,0.80
2018-03-20T03:57:48.572Z,0.80
2018-03-20T03:58:53.818Z,0.80
2018-03-20T03:59:58.071Z,0.80
2018-03-20T04:01:02.264Z,0.80
2018-03-20T04:02:10.734Z,0.80
2018-03-20T04:03:16.788Z,0.80
2018-03-20T04:04:22.205Z,0.80
2018-03-20T04:05:26.417Z,0.80
2018-03-20T04:06:31.452Z,0.80
2018-03-20T04:07:36.245Z,0.80
2018-03-20T04:08:42.519Z,0.80
2018-03-20T04:09:52.270Z,0.60
2018-03-20T04:10:56.496Z,0.60
2018-03-20T04:12:00.867Z,0.60
2018-03-20T04:13:06.021Z,0.60
2018-03-20T04:14:15.243Z,0.50
2018-03-20T04:15:21.575Z,0.50
2018-03-20T04:16:26.550Z,0.40
2018-03-20T04:17:30.726Z,0.40
2018-03-20T04:18:34.898Z,0.40
2018-03-20T04:19:43.411Z,0.30
2018-03-20T04:20:48.630Z,0.30
2018-03-20T04:21:53.714Z,0.30
2018-03-20T04:22:57.918Z,0.30
2018-03-20T04:24:02.110Z,0.30
2018-03-20T04:25:09.042Z,0.30
2018-03-20T04:26:16.606Z,0.30
2018-03-20T04:27:22.044Z,0.30
2018-03-20T04:28:26.281Z,0.30
2018-03-20T04:29:30.502Z,0.40
2018-03-20T04:30:34.809Z,0.40
2018-03-20T04:31:44.156Z,0.40
2018-03-20T04:32:50.282Z,0.40
2018-03-20T04:33:54.676Z,0.40
2018-03-20T04:34:58.894Z,0.40
2018-03-20T04:36:03.092Z,0.30
2018-03-20T04:37:08.898Z,0.40
2018-03-20T04:38:13.442Z,0.40
2018-03-20T04:39:18.404Z,0.40
2018-03-20T04:40:22.642Z,0.50
2018-03-20T04:41:26.865Z,0.50
2018-03-20T04:42:31.038Z,0.50
2018-03-20T04:43:35.360Z,0.60
2018-03-20T04:44:41.679Z,0.60
2018-03-20T04:45:46.339Z,0.60
2018-03-20T04:46:51.413Z,0.80
2018-03-20T04:47:56.449Z,0.80
2018-03-20T04:49:00.633Z,0.80
2018-03-20T04:50:04.810Z,0.80
2018-03-20T04:51:09.258Z,0.80
2018-03-20T04:52:13.625Z,0.90
2018-03-20T04:53:18.445Z,0.90
2018-03-20T04:54:22.652Z,0.90
2018-03-20T04:55:27.600Z,1.10
2018-03-20T04:56:31.776Z,1.00
2018-03-20T04:57:40.410Z,1.10
2018-03-20T04:58:46.807Z,1.20
2018-03-20T04:59:52.541Z,1.20
2018-03-20T05:00:56.739Z,1.20
2018-03-20T05:02:00.933Z,1.20
2018-03-20T05:03:05.144Z,1.30
2018-03-20T05:04:10.807Z,1.30
2018-03-20T05:05:16.120Z,1.40
2018-03-20T05:06:20.835Z,1.30
2018-03-20T05:07:25.814Z,1.40
2018-03-20T05:08:29.998Z,1.40
2018-03-20T05:09:34.183Z,1.40
2018-03-20T05:10:39.349Z,1.40
2018-03-20T05:11:44.549Z,1.40
2018-03-20T05:12:49.681Z,1.40
2018-03-20T05:13:54.301Z,1.40
2018-03-20T05:14:58.475Z,1.50
2018-03-20T05:16:02.775Z,1.50
2018-03-20T05:17:09.480Z,1.50
2018-03-20T05:18:21.649Z,1.50
2018-03-20T05:19:28.150Z,1.50
2018-03-20T05:22:33.065Z,1.70
2018-03-20T05:23:40.656Z,1.70
2018-03-20T05:24:47.321Z,1.80
2018-03-20T05:25:52.822Z,1.80
2018-03-20T05:26:57.025Z,1.80
2018-03-20T05:28:02.018Z,1.80
2018-03-20T05:29:07.054Z,1.80
2018-03-20T05:30:14.399Z,1.90
2018-03-20T05:31:20.925Z,1.90
2018-03-20T05:32:25.163Z,1.90
2018-03-20T05:33:30.152Z,1.90
2018-03-20T05:34:34.384Z,1.90
2018-03-20T05:35:41.657Z,2.00
2018-03-20T05:36:46.888Z,2.00
2018-03-20T05:37:52.736Z,2.00
2018-03-20T05:38:56.926Z,1.90
2018-03-20T05:40:01.215Z,1.80
2018-03-20T05:41:06.138Z,1.70
2018-03-20T05:42:13.560Z,1.70
2018-03-20T05:43:19.510Z,1.70
2018-03-20T05:44:24.320Z,1.70
2018-03-20T05:45:38.139Z,1.70
2018-03-20T05:48:38.787Z,1.70
2018-03-20T05:49:53.417Z,1.70
2018-03-20T05:51:03.098Z,1.70
2018-03-20T05:52:12.062Z,1.70
2018-03-20T05:53:20.382Z,1.60
2018-03-20T05:54:25.121Z,1.60
2018-03-20T05:55:29.323Z,1.60
2018-03-20T05:56:34.302Z,1.60
2018-03-20T05:57:44.467Z,1.60
2018-03-20T05:58:53.278Z,1.60
2018-03-20T05:59:58.579Z,1.50
2018-03-20T06:01:02.791Z,1.50
2018-03-20T06:02:11.219Z,1.60
2018-03-20T06:03:18.080Z,1.60
2018-03-20T06:04:26.072Z,1.50
2018-03-20T06:05:30.251Z,1.50
2018-03-20T06:06:34.427Z,1.50
2018-03-20T06:07:45.556Z,1.50
2018-03-20T06:08:52.644Z,1.50
2018-03-20T06:09:56.855Z,1.50
2018-03-20T06:11:01.073Z,1.50
2018-03-20T06:12:05.654Z,1.50
2018-03-20T06:13:18.370Z,1.50
2018-03-20T06:14:24.610Z,1.50
2018-03-20T06:15:28.805Z,1.50
2018-03-20T06:16:32.990Z,1.50
2018-03-20T06:17:40.661Z,1.50
2018-03-20T06:18:47.482Z,1.50
2018-03-20T06:19:53.166Z,1.50
2018-03-20T06:20:58.113Z,1.60
2018-03-20T06:22:02.415Z,1.50
2018-03-20T06:23:11.488Z,1.60
2018-03-20T06:24:19.025Z,1.50
2018-03-20T06:25:24.218Z,1.50
2018-03-20T06:26:28.403Z,1.50
2018-03-20T06:27:32.618Z,1.50
2018-03-20T06:28:41.294Z,1.60
2018-03-20T06:29:47.297Z,1.60
2018-03-20T06:30:53.851Z,1.60
2018-03-20T06:31:58.027Z,1.60
2018-03-20T06:33:02.976Z,1.60
2018-03-20T06:34:10.960Z,1.60
2018-03-20T06:35:18.297Z,1.60
2018-03-20T06:36:22.919Z,1.70
2018-03-20T06:37:27.233Z,1.70
2018-03-20T06:38:31.435Z,1.70
2018-03-20T06:39:38.833Z,1.70
2018-03-20T06:40:47.564Z,1.80
2018-03-20T06:41:54.286Z,1.70
2018-03-20T06:42:58.489Z,1.70
2018-03-20T06:44:02.662Z,1.70
2018-03-20T06:45:10.902Z,1.80
2018-03-20T06:46:18.322Z,1.80
2018-03-20T06:47:23.783Z,1.80
2018-03-20T06:48:28.327Z,1.80
2018-03-20T06:49:32.519Z,1.80
2018-03-20T06:50:39.095Z,1.80
2018-03-20T06:51:44.644Z,1.90
2018-03-20T06:52:51.201Z,1.90
2018-03-20T06:53:55.496Z,1.90
2018-03-20T06:54:59.685Z,1.90
2018-03-20T06:56:03.896Z,1.90
2018-03-20T06:57:12.119Z,2.00
2018-03-20T06:58:17.528Z,2.00
2018-03-20T06:59:24.746Z,2.10
2018-03-20T07:00:29.722Z,2.10
2018-03-20T07:01:33.911Z,2.10
2018-03-20T07:02:44.060Z,2.00
2018-03-20T07:03:51.457Z,2.10
2018-03-20T07:04:55.820Z,2.20
2018-03-20T07:05:59.994Z,2.20
2018-03-20T07:07:04.232Z,2.20
2018-03-20T07:08:10.994Z,2.20
2018-03-20T07:09:17.537Z,2.20
2018-03-20T07:10:23.868Z,2.30
2018-03-20T07:11:28.826Z,2.30
2018-03-20T07:12:33.011Z,2.20
2018-03-20T07:13:43.028Z,2.20
2018-03-20T07:14:49.562Z,2.20
2018-03-20T07:15:55.011Z,2.30
2018-03-20T07:16:59.215Z,2.20
2018-03-20T07:18:03.385Z,2.30
2018-03-20T07:19:11.317Z,2.40
2018-03-20T07:20:17.311Z,2.40
2018-03-20T07:21:23.415Z,2.40
2018-03-20T07:22:27.672Z,2.50
2018-03-20T07:23:31.845Z,2.40
2018-03-20T07:24:36.624Z,2.50
2018-03-20T07:25:45.372Z,2.60
2018-03-20T07:26:51.261Z,2.50
2018-03-20T07:27:55.630Z,2.60
2018-03-20T07:28:59.795Z,2.60
2018-03-20T07:30:03.993Z,2.70
2018-03-20T07:31:10.424Z,2.70
2018-03-20T07:32:17.779Z,2.80
2018-03-20T07:33:23.398Z,2.80
2018-03-20T07:34:27.620Z,2.70
2018-03-20T07:35:32.593Z,2.70
2018-03-20T07:36:39.138Z,2.70
2018-03-20T07:37:45.177Z,2.70
2018-03-20T07:38:52.601Z,2.80
2018-03-20T07:39:56.837Z,2.80
2018-03-20T07:41:00.983Z,2.80
2018-03-20T07:42:05.203Z,2.80
2018-03-20T07:43:13.780Z,2.90
2018-03-20T07:44:19.000Z,2.90
2018-03-20T07:45:24.470Z,2.90
2018-03-20T07:46:29.448Z,2.90
2018-03-20T07:47:33.620Z,2.90
2018-03-20T07:48:41.844Z,3.00
2018-03-20T07:49:47.866Z,3.00
2018-03-20T07:50:53.422Z,3.10
2018-03-20T07:51:58.371Z,3.20
2018-03-20T07:53:02.549Z,3.10
2018-03-20T07:54:08.113Z,3.20
2018-03-20T07:55:13.983Z,3.20
2018-03-20T07:56:20.270Z,3.20
2018-03-20T07:57:24.755Z,3.30
2018-03-20T07:58:29.811Z,3.30
2018-03-20T07:59:34.020Z,3.30
2018-03-20T08:00:42.020Z,3.30
2018-03-20T08:01:48.172Z,3.40
2018-03-20T08:02:54.732Z,3.50
2018-03-20T08:03:59.125Z,3.50
2018-03-20T08:05:03.318Z,3.50
2018-03-20T08:06:11.146Z,3.50
2018-03-20T08:07:17.118Z,3.50
2018-03-20T08:08:23.624Z,3.60
2018-03-20T08:09:27.783Z,3.60
2018-03-20T08:10:31.943Z,3.70
2018-03-20T08:11:37.568Z,3.70
2018-03-20T08:12:43.671Z,3.70
2018-03-20T08:13:50.145Z,3.70
2018-03-20T08:14:55.420Z,3.60
2018-03-20T08:15:59.607Z,3.60
2018-03-20T08:17:03.792Z,3.60
2018-03-20T08:18:09.100Z,3.60
2018-03-20T08:19:16.016Z,3.70
2018-03-20T08:20:23.167Z,3.70
2018-03-20T08:21:27.495Z,3.70
2018-03-20T08:22:31.691Z,3.70
2018-03-20T08:23:37.727Z,3.80
2018-03-20T08:24:45.014Z,3.80
2018-03-20T08:25:50.747Z,3.80
2018-03-20T08:26:56.072Z,3.80
2018-03-20T08:28:00.296Z,3.90
2018-03-20T08:29:08.267Z,3.90
2018-03-20T08:30:16.139Z,3.90
2018-03-20T08:31:20.908Z,3.90
2018-03-20T08:32:25.186Z,3.90
2018-03-20T08:33:29.375Z,3.90
2018-03-20T08:34:33.577Z,3.90
2018-03-20T08:35:41.185Z,3.90
2018-03-20T08:36:46.257Z,3.90
2018-03-20T08:37:53.927Z,3.90
2018-03-20T08:38:58.113Z,3.90
2018-03-20T08:40:02.271Z,4.00
2018-03-20T08:41:10.323Z,4.00
2018-03-20T08:42:17.600Z,4.10
2018-03-20T08:43:23.257Z,4.20
2018-03-20T08:44:27.456Z,4.30
2018-03-20T08:45:31.624Z,4.20
2018-03-20T08:46:38.823Z,4.20
2018-03-20T08:47:47.384Z,4.30
2018-03-20T08:48:54.176Z,4.30
2018-03-20T08:49:58.471Z,4.20
2018-03-20T08:51:02.657Z,4.30
2018-03-20T08:52:09.254Z,4.30
2018-03-20T08:53:14.514Z,4.30
2018-03-20T08:54:18.712Z,4.30
2018-03-20T08:55:23.343Z,4.40
2018-03-20T08:56:33.290Z,4.40
2018-03-20T08:57:41.504Z,4.40
2018-03-20T08:58:45.715Z,4.40
2018-03-20T08:59:49.948Z,4.50
2018-03-20T09:00:57.116Z,4.50
2018-03-20T09:02:02.837Z,4.60
2018-03-20T09:03:09.002Z,4.60
2018-03-20T09:04:13.181Z,4.60
2018-03-20T09:05:17.413Z,4.70
2018-03-20T09:06:21.611Z,4.70
2018-03-20T09:07:28.826Z,4.70
2018-03-20T09:08:35.964Z,4.80
2018-03-20T09:09:40.541Z,4.90
2018-03-20T09:10:45.535Z,4.90
2018-03-20T09:11:49.782Z,4.90
2018-03-20T09:12:57.324Z,4.90
2018-03-20T09:14:02.734Z,4.90
2018-03-20T09:15:09.534Z,4.90
2018-03-20T09:16:13.791Z,5.00
2018-03-20T09:17:18.733Z,5.10
2018-03-20T09:18:23.317Z,5.00
2018-03-20T09:19:31.515Z,5.00
2018-03-20T09:20:38.792Z,5.10
2018-03-20T09:21:43.434Z,5.10
2018-03-20T09:22:48.389Z,5.10
2018-03-20T09:23:52.660Z,5.10
2018-03-20T09:25:03.211Z,5.20
2018-03-20T09:26:08.622Z,5.30
2018-03-20T09:27:12.958Z,5.20
2018-03-20T09:28:17.171Z,5.30
2018-03-20T09:29:21.352Z,5.30
2018-03-20T09:30:28.367Z,5.20
2018-03-20T09:31:35.076Z,5.20
2018-03-20T09:32:41.171Z,5.20
2018-03-20T09:33:45.619Z,5.20
2018-03-20T09:34:49.789Z,5.20
2018-03-20T09:35:58.575Z,5.20
2018-03-20T09:37:05.289Z,5.30
2018-03-20T09:38:11.752Z,5.20
2018-03-20T09:39:15.928Z,5.30
2018-03-20T09:40:20.098Z,5.40
2018-03-20T09:41:27.746Z,5.40
2018-03-20T09:42:34.353Z,5.40
2018-03-20T09:43:40.110Z,5.40
2018-03-20T09:44:45.263Z,5.50
2018-03-20T09:45:49.459Z,5.40
2018-03-20T09:46:56.066Z,5.50
2018-03-20T09:48:03.089Z,5.60
2018-03-20T09:49:09.146Z,5.60
2018-03-20T09:50:14.113Z,5.70
2018-03-20T09:51:18.270Z,5.60
2018-03-20T09:52:22.446Z,5.70
2018-03-20T09:53:33.920Z,5.70
2018-03-20T09:54:41.259Z,5.60
2018-03-20T09:55:45.433Z,5.70
2018-03-20T09:56:49.610Z,5.70
2018-03-20T09:57:58.309Z,5.90
2018-03-20T09:59:04.769Z,5.90
2018-03-20T10:00:10.973Z,6.00
2018-03-20T10:01:15.181Z,6.00
2018-03-20T10:02:19.373Z,5.90
2018-03-20T10:03:26.839Z,5.90
2018-03-20T10:04:36.302Z,5.90
2018-03-20T10:05:42.455Z,5.90
2018-03-20T10:06:46.634Z,6.00
2018-03-20T10:07:50.834Z,6.00
2018-03-20T10:09:00.137Z,6.00
2018-03-20T10:10:06.990Z,6.00
2018-03-20T10:11:12.472Z,6.00
2018-03-20T10:12:16.654Z,6.00
2018-03-20T10:13:20.866Z,6.10
2018-03-20T10:14:31.052Z,6.10
2018-03-20T10:15:39.724Z,6.10
2018-03-20T10:16:43.943Z,6.10
2018-03-20T10:17:48.145Z,6.10
2018-03-20T10:18:52.386Z,6.20
2018-03-20T10:20:02.892Z,6.20
2018-03-20T10:21:09.183Z,6.20
2018-03-20T10:22:13.387Z,6.20
2018-03-20T10:23:17.591Z,6.30
2018-03-20T10:24:21.791Z,6.40
2018-03-20T10:25:29.161Z,6.40
2018-03-20T10:26:35.696Z,6.40
2018-03-20T10:27:41.536Z,6.50
2018-03-20T10:28:45.799Z,6.50
2018-03-20T10:29:50.008Z,6.60
2018-03-20T10:30:57.297Z,6.50
2018-03-20T10:32:04.227Z,6.50
2018-03-20T10:33:09.477Z,6.50
2018-03-20T10:34:14.496Z,6.40
2018-03-20T10:35:18.712Z,6.40
2018-03-20T10:36:23.009Z,6.40
2018-03-20T10:37:31.288Z,6.30
2018-03-20T10:38:37.155Z,6.40
2018-03-20T10:39:41.558Z,6.30
2018-03-20T10:40:45.733Z,6.40
2018-03-20T10:41:49.930Z,6.50
2018-03-20T10:42:56.835Z,6.70
2018-03-20T10:44:03.611Z,6.60
2018-03-20T10:45:09.307Z,6.60
2018-03-20T10:46:14.235Z,6.60
2018-03-20T10:47:19.976Z,6.60
2018-03-20T10:48:26.288Z,6.50
2018-03-20T10:49:33.202Z,6.50
2018-03-20T10:50:39.239Z,6.60
2018-03-20T10:51:43.493Z,6.60
2018-03-20T10:52:48.438Z,6.60
2018-03-20T10:53:52.878Z,6.60
2018-03-20T10:55:02.748Z,6.70
2018-03-20T10:56:08.782Z,6.70
2018-03-20T10:57:13.029Z,6.70
2018-03-20T10:58:17.200Z,6.70
2018-03-20T10:59:21.406Z,6.80
2018-03-20T11:02:13.765Z,6.80
2018-03-20T11:03:17.968Z,6.80
2018-03-20T11:04:22.318Z,6.90
2018-03-20T11:05:34.062Z,7.00
2018-03-20T11:06:40.652Z,7.10
2018-03-20T11:07:44.882Z,7.00
2018-03-20T11:08:49.055Z,7.10
2018-03-20T11:09:56.249Z,7.20
2018-03-20T11:11:03.785Z,7.20
2018-03-20T11:12:10.448Z,7.40
2018-03-20T11:13:14.669Z,7.40
2018-03-20T11:14:19.612Z,7.50
2018-03-20T11:15:26.770Z,7.50
2018-03-20T11:16:33.925Z,7.40
2018-03-20T11:17:39.723Z,7.40
2018-03-20T11:18:43.912Z,7.20
2018-03-20T11:19:48.836Z,7.20
2018-03-20T11:20:57.196Z,7.20
2018-03-20T11:22:04.040Z,7.10
2018-03-20T11:23:09.695Z,7.10
2018-03-20T11:24:13.866Z,7.10
2018-03-20T11:25:18.039Z,7.10
2018-03-20T11:26:22.253Z,7.10
2018-03-20T11:27:30.365Z,7.10
2018-03-20T11:28:36.211Z,7.00
2018-03-20T11:29:41.263Z,7.00
2018-03-20T11:30:45.465Z,7.10
2018-03-20T11:31:49.655Z,7.10
2018-03-20T11:32:56.048Z,7.10
2018-03-20T11:34:05.143Z,7.10
2018-03-20T11:35:10.863Z,7.00
2018-03-20T11:36:15.214Z,7.00
2018-03-20T11:37:19.412Z,7.10
2018-03-20T11:38:24.859Z,7.10
2018-03-20T11:39:31.152Z,7.30
2018-03-20T11:40:36.879Z,7.30
2018-03-20T11:41:41.440Z,7.30
2018-03-20T11:42:45.680Z,7.30
2018-03-20T11:43:49.858Z,7.40
2018-03-20T11:44:57.772Z,7.30
2018-03-20T11:46:03.816Z,7.30
2018-03-20T11:47:09.639Z,7.30
2018-03-20T11:48:13.851Z,7.40
2018-03-20T11:49:18.816Z,7.40
2018-03-20T11:50:25.393Z,7.40
2018-03-20T11:51:32.701Z,7.30
2018-03-20T11:52:40.036Z,7.30
2018-03-20T11:53:44.487Z,7.40
2018-03-20T11:54:48.649Z,7.50
2018-03-20T11:55:55.886Z,7.60
2018-03-20T11:57:06.106Z,7.60
2018-03-20T11:58:10.570Z,7.60
2018-03-20T11:59:14.802Z,7.80
2018-03-20T12:00:19.734Z,7.90
2018-03-20T12:01:28.195Z,7.90
2018-03-20T12:02:34.845Z,7.90
2018-03-20T12:03:40.185Z,8.00
2018-03-20T12:04:44.385Z,7.90
2018-03-20T12:05:48.561Z,7.90
2018-03-20T12:06:55.054Z,7.80
2018-03-20T12:08:00.356Z,7.80
2018-03-20T12:10:58.536Z,7.70
2018-03-20T12:12:04.745Z,7.80
2018-03-20T12:13:09.753Z,7.80
2018-03-20T12:14:14.685Z,7.80
2018-03-20T12:15:19.653Z,7.80
2018-03-20T12:16:27.342Z,7.70
2018-03-20T12:17:35.057Z,7.80
2018-03-20T12:18:40.743Z,7.70
2018-03-20T12:19:44.920Z,7.60
2018-03-20T12:20:49.099Z,7.60
2018-03-20T12:21:55.478Z,7.70
2018-03-20T12:23:04.410Z,7.80
2018-03-20T12:24:10.702Z,7.80
2018-03-20T12:25:14.911Z,7.90
2018-03-20T12:26:19.076Z,7.80
2018-03-20T12:27:26.692Z,7.60
2018-03-20T12:28:34.315Z,7.50
2018-03-20T12:29:40.341Z,7.50
2018-03-20T12:30:44.530Z,7.50
2018-03-20T12:31:48.691Z,7.60
2018-03-20T12:32:54.807Z,7.60
2018-03-20T12:34:01.485Z,7.70
2018-03-20T12:35:08.248Z,7.80
2018-03-20T12:36:12.800Z,7.80
2018-03-20T12:37:16.991Z,7.80
2018-03-20T12:38:22.013Z,7.60
2018-03-20T12:39:31.722Z,7.60
2018-03-20T12:40:39.180Z,7.60
2018-03-20T12:41:43.380Z,7.60
2018-03-20T12:42:47.557Z,7.60
2018-03-20T12:43:51.781Z,7.60
2018-03-20T12:45:00.466Z,7.60
2018-03-20T12:46:05.900Z,7.60
2018-03-20T12:47:10.816Z,7.80
2018-03-20T12:48:14.971Z,7.70
2018-03-20T12:49:19.952Z,7.80
2018-03-20T12:50:25.308Z,7.80
2018-03-20T12:51:31.493Z,7.80
2018-03-20T12:52:39.371Z,7.90
2018-03-20T12:53:43.534Z,7.90
2018-03-20T12:54:47.748Z,7.90
2018-03-20T12:55:51.926Z,7.80
2018-03-20T12:56:59.896Z,7.70
2018-03-20T12:58:07.916Z,7.70
2018-03-20T12:59:12.213Z,7.60
2018-03-20T13:00:16.462Z,7.70
2018-03-20T13:01:20.634Z,7.70
2018-03-20T13:02:30.443Z,7.70
2018-03-20T13:03:38.221Z,7.60
2018-03-20T13:04:42.798Z,7.70
2018-03-20T13:05:47.023Z,7.70
2018-03-20T13:06:51.979Z,7.60
2018-03-20T13:08:03.158Z,7.60
2018-03-20T13:09:10.088Z,7.70
2018-03-20T13:10:14.256Z,7.70
2018-03-20T13:11:18.469Z,7.70
2018-03-20T13:12:23.021Z,7.70
2018-03-20T13:13:33.070Z,7.70
2018-03-20T13:14:39.390Z,7.60
2018-03-20T13:15:43.590Z,7.60
2018-03-20T13:16:47.806Z,7.60
2018-03-20T13:17:51.966Z,7.70
2018-03-20T13:19:01.028Z,7.70
2018-03-20T13:20:09.585Z,7.60
2018-03-20T13:21:13.747Z,7.60
2018-03-20T13:22:17.962Z,7.60
2018-03-20T13:23:22.191Z,7.60
2018-03-20T13:24:32.417Z,7.50
2018-03-20T13:25:39.975Z,7.50
2018-03-20T13:26:44.915Z,7.70
2018-03-20T13:27:49.927Z,7.70
2018-03-20T13:28:56.617Z,7.70
2018-03-20T13:30:05.404Z,7.70
2018-03-20T13:31:10.315Z,7.70
2018-03-20T13:32:14.487Z,7.80
2018-03-20T13:33:18.707Z,7.90
2018-03-20T13:34:25.224Z,7.80
2018-03-20T13:35:33.377Z,7.70
2018-03-20T13:36:40.707Z,7.70
2018-03-20T13:37:44.888Z,7.70
2018-03-20T13:38:49.144Z,7.80
2018-03-20T13:39:56.559Z,7.80
2018-03-20T13:41:03.482Z,7.90
2018-03-20T13:42:09.438Z,7.90
2018-03-20T13:43:15.156Z,7.70
2018-03-20T13:44:19.387Z,7.70
2018-03-20T13:45:26.971Z,7.80
2018-03-20T13:46:34.578Z,7.80
2018-03-20T13:47:40.184Z,7.80
2018-03-20T13:48:44.371Z,7.80
2018-03-20T13:49:49.361Z,7.60
2018-03-20T13:50:58.679Z,7.60
2018-03-20T13:52:06.634Z,7.80
2018-03-20T13:54:44.145Z,7.90
2018-03-20T13:55:48.367Z,7.90
2018-03-20T13:56:52.547Z,7.80
2018-03-20T13:58:01.486Z,7.90
2018-03-20T13:59:07.884Z,8.10
2018-03-20T14:00:12.146Z,8.00
2018-03-20T14:01:17.160Z,8.00
2018-03-20T14:02:21.333Z,8.00
2018-03-20T14:03:28.622Z,7.90
2018-03-20T14:04:34.739Z,7.90
2018-03-20T14:05:40.572Z,7.90
2018-03-20T14:06:44.981Z,7.90
2018-03-20T14:07:49.119Z,8.00
2018-03-20T14:08:53.986Z,8.00
2018-03-20T14:10:01.099Z,7.90
2018-03-20T14:11:06.899Z,7.90
2018-03-20T14:12:11.326Z,7.80
2018-03-20T14:13:15.542Z,7.90
2018-03-20T14:14:19.718Z,7.90
2018-03-20T14:15:24.559Z,8.00
2018-03-20T14:16:31.167Z,8.00
2018-03-20T14:17:37.110Z,7.90
2018-03-20T14:18:42.378Z,7.90
2018-03-20T14:19:46.565Z,7.90
2018-03-20T14:20:51.548Z,8.00
2018-03-20T14:21:58.993Z,8.00
2018-03-20T14:23:06.230Z,8.00
2018-03-20T14:24:11.447Z,8.00
2018-03-20T14:25:15.602Z,8.00
2018-03-20T14:26:19.878Z,7.90
2018-03-20T14:27:25.130Z,7.80
2018-03-20T14:28:30.486Z,7.70
2018-03-20T14:29:35.458Z,7.80
2018-03-20T14:30:41.353Z,7.80
2018-03-20T14:31:46.372Z,7.80
2018-03-20T14:32:50.550Z,7.70
2018-03-20T14:33:57.862Z,7.80
2018-03-20T14:35:02.831Z,7.70
2018-03-20T14:36:07.641Z,7.60
2018-03-20T14:37:11.998Z,7.50
2018-03-20T14:38:16.220Z,7.40
2018-03-20T14:39:20.427Z,7.40
2018-03-20T14:40:25.957Z,7.40
2018-03-20T14:41:31.288Z,7.40